sensor_id;sensor_type;location;lat;lon;timestamp;pressure;altitude;pressure_sealevel;temperature;humidity
73341;BME280;61578;52.002;5.468;2023-02-28T00:00:07;103118.66;;;1.85;73.89
73341;BME280;61578;52.002;5.468;2023-02-28T00:00:41;103107.31;;;1.81;73.73
73341;BME280;61578;52.002;5.468;2023-02-28T00:01:13;103116.06;;;1.87;73.96
73341;BME280;61578;52.002;5.468;2023-02-28T00:01:44;103119.56;;;1.89;74.28
73341;BME280;61578;52.002;5.468;2023-02-28T00:02:15;103061.69;;;1.57;74.33
73341;BME280;61578;52.002;5.468;2023-02-28T00:02:48;103114.34;;;1.89;73.88
73341;BME280;61578;52.002;5.468;2023-02-28T00:03:19;103125.66;;;1.86;73.93
73341;BME280;61578;52.002;5.468;2023-02-28T00:03:50;103113.50;;;1.94;73.79
73341;BME280;61578;52.002;5.468;2023-02-28T00:04:21;103118.72;;;1.94;73.81
73341;BME280;61578;52.002;5.468;2023-02-28T00:04:52;103123.09;;;1.92;73.74
73341;BME280;61578;52.002;5.468;2023-02-28T00:05:32;103123.09;;;1.95;73.59
73341;BME280;61578;52.002;5.468;2023-02-28T00:06:04;103090.66;;;1.78;73.96
73341;BME280;61578;52.002;5.468;2023-02-28T00:06:39;103122.22;;;1.95;73.38
73341;BME280;61578;52.002;5.468;2023-02-28T00:07:10;103118.72;;;1.94;73.92
73341;BME280;61578;52.002;5.468;2023-02-28T00:07:41;103125.72;;;1.94;73.76
73341;BME280;61578;52.002;5.468;2023-02-28T00:08:12;103116.97;;;1.90;73.58
73341;BME280;61578;52.002;5.468;2023-02-28T00:08:44;103123.97;;;1.94;73.85
73341;BME280;61578;52.002;5.468;2023-02-28T00:09:15;103126.59;;;1.93;73.90
73341;BME280;61578;52.002;5.468;2023-02-28T00:09:46;103078.34;;;1.66;73.77
73341;BME280;61578;52.002;5.468;2023-02-28T00:10:22;103109.06;;;1.85;73.51
73341;BME280;61578;52.002;5.468;2023-02-28T00:10:55;103012.63;;;1.31;73.57
73341;BME280;61578;52.002;5.468;2023-02-28T00:11:30;103110.84;;;1.90;73.66
73341;BME280;61578;52.002;5.468;2023-02-28T00:12:04;103124.00;;;1.96;73.86
73341;BME280;61578;52.002;5.468;2023-02-28T00:12:41;103119.59;;;1.95;74.55
73341;BME280;61578;52.002;5.468;2023-02-28T00:13:12;103116.09;;;1.94;73.80
73341;BME280;61578;52.002;5.468;2023-02-28T00:13:45;103123.09;;;1.95;74.31
73341;BME280;61578;52.002;5.468;2023-02-28T00:14:17;103117.88;;;1.97;73.79
73341;BME280;61578;52.002;5.468;2023-02-28T00:14:48;103119.66;;;1.98;74.25
73341;BME280;61578;52.002;5.468;2023-02-28T00:15:20;103116.16;;;1.99;74.24
73341;BME280;61578;52.002;5.468;2023-02-28T00:16:00;103117.03;;;1.98;73.82
73341;BME280;61578;52.002;5.468;2023-02-28T00:16:33;103113.50;;;1.94;73.90
73341;BME280;61578;52.002;5.468;2023-02-28T00:17:04;103124.03;;;2.00;73.81
73341;BME280;61578;52.002;5.468;2023-02-28T00:17:34;103111.78;;;1.98;73.83
73341;BME280;61578;52.002;5.468;2023-02-28T00:18:05;103125.81;;;2.03;74.12
73341;BME280;61578;52.002;5.468;2023-02-28T00:18:37;103107.41;;;1.97;73.92
73341;BME280;61578;52.002;5.468;2023-02-28T00:19:08;103110.91;;;1.97;74.06
73341;BME280;61578;52.002;5.468;2023-02-28T00:19:39;103115.31;;;2.00;74.12
73341;BME280;61578;52.002;5.468;2023-02-28T00:20:11;103120.59;;;2.09;74.50
73341;BME280;61578;52.002;5.468;2023-02-28T00:20:43;103117.13;;;2.10;74.28
73341;BME280;61578;52.002;5.468;2023-02-28T00:21:15;103117.19;;;2.19;74.60
73341;BME280;61578;52.002;5.468;2023-02-28T00:21:47;103061.97;;;1.90;74.15
73341;BME280;61578;52.002;5.468;2023-02-28T00:22:20;103067.22;;;1.95;73.83
73341;BME280;61578;52.002;5.468;2023-02-28T00:22:53;103097.97;;;2.18;73.89
73341;BME280;61578;52.002;5.468;2023-02-28T00:23:25;103122.59;;;2.42;74.13
73341;BME280;61578;52.002;5.468;2023-02-28T00:23:57;103126.13;;;2.50;74.01
73341;BME280;61578;52.002;5.468;2023-02-28T00:24:28;103122.66;;;2.55;73.43
73341;BME280;61578;52.002;5.468;2023-02-28T00:24:59;103017.50;;;2.04;73.53
73341;BME280;61578;52.002;5.468;2023-02-28T00:25:30;103125.31;;;2.60;72.98
73341;BME280;61578;52.002;5.468;2023-02-28T00:26:01;103123.56;;;2.61;72.82
73341;BME280;61578;52.002;5.468;2023-02-28T00:26:32;103115.72;;;2.64;73.05
73341;BME280;61578;52.002;5.468;2023-02-28T00:27:03;103113.06;;;2.61;73.33
73341;BME280;61578;52.002;5.468;2023-02-28T00:27:35;103121.84;;;2.69;72.75
73341;BME280;61578;52.002;5.468;2023-02-28T00:28:07;103117.47;;;2.65;73.13
73341;BME280;61578;52.002;5.468;2023-02-28T00:28:37;103125.31;;;2.66;73.28
73341;BME280;61578;52.002;5.468;2023-02-28T00:29:09;103115.75;;;2.71;72.99
73341;BME280;61578;52.002;5.468;2023-02-28T00:29:40;103109.63;;;2.71;72.90
73341;BME280;61578;52.002;5.468;2023-02-28T00:30:13;103124.53;;;2.79;72.81
73341;BME280;61578;52.002;5.468;2023-02-28T00:30:49;103112.28;;;2.77;72.93
73341;BME280;61578;52.002;5.468;2023-02-28T00:31:20;103114.91;;;2.80;72.75
73341;BME280;61578;52.002;5.468;2023-02-28T00:31:50;103113.19;;;2.83;72.81
73341;BME280;61578;52.002;5.468;2023-02-28T00:32:21;103116.69;;;2.87;72.67
73341;BME280;61578;52.002;5.468;2023-02-28T00:32:52;103114.94;;;2.89;72.93
73341;BME280;61578;52.002;5.468;2023-02-28T00:33:23;103114.09;;;2.90;72.39
73341;BME280;61578;52.002;5.468;2023-02-28T00:33:54;103113.22;;;2.91;72.53
73341;BME280;61578;52.002;5.468;2023-02-28T00:34:24;103114.09;;;2.91;72.54
73341;BME280;61578;52.002;5.468;2023-02-28T00:34:56;103106.22;;;2.91;72.32
73341;BME280;61578;52.002;5.468;2023-02-28T00:35:29;103109.75;;;2.95;72.75
73341;BME280;61578;52.002;5.468;2023-02-28T00:36:02;103109.72;;;2.98;72.10
73341;BME280;61578;52.002;5.468;2023-02-28T00:36:35;103015.13;;;2.43;72.08
73341;BME280;61578;52.002;5.468;2023-02-28T00:37:09;103113.25;;;3.02;72.03
73341;BME280;61578;52.002;5.468;2023-02-28T00:37:42;103108.88;;;3.02;72.17
73341;BME280;61578;52.002;5.468;2023-02-28T00:38:15;103115.88;;;3.02;72.12
73341;BME280;61578;52.002;5.468;2023-02-28T00:38:46;103118.53;;;3.03;72.02
73341;BME280;61578;52.002;5.468;2023-02-28T00:39:17;103107.16;;;3.04;72.04
73341;BME280;61578;52.002;5.468;2023-02-28T00:39:48;103110.66;;;3.05;71.98
73341;BME280;61578;52.002;5.468;2023-02-28T00:40:19;103106.28;;;3.05;71.92
73341;BME280;61578;52.002;5.468;2023-02-28T00:40:50;103094.84;;;2.95;71.90
73341;BME280;61578;52.002;5.468;2023-02-28T00:41:21;103108.91;;;3.08;72.23
73341;BME280;61578;52.002;5.468;2023-02-28T00:41:51;103103.63;;;3.07;71.87
73341;BME280;61578;52.002;5.468;2023-02-28T00:42:23;103108.88;;;3.07;71.76
73341;BME280;61578;52.002;5.468;2023-02-28T00:42:54;103109.75;;;3.07;71.98
73341;BME280;61578;52.002;5.468;2023-02-28T00:43:25;103104.53;;;3.04;71.67
73341;BME280;61578;52.002;5.468;2023-02-28T00:43:56;103108.03;;;3.08;72.17
73341;BME280;61578;52.002;5.468;2023-02-28T00:44:27;103117.63;;;3.07;72.00
73341;BME280;61578;52.002;5.468;2023-02-28T00:44:58;103111.53;;;3.05;72.00
73341;BME280;61578;52.002;5.468;2023-02-28T00:45:30;103107.16;;;3.12;72.04
73341;BME280;61578;52.002;5.468;2023-02-28T00:46:02;103053.69;;;2.78;71.95
73341;BME280;61578;52.002;5.468;2023-02-28T00:46:33;103100.13;;;3.06;71.83
73341;BME280;61578;52.002;5.468;2023-02-28T00:47:04;103091.38;;;3.06;71.92
73341;BME280;61578;52.002;5.468;2023-02-28T00:47:35;103064.22;;;2.87;71.76
73341;BME280;61578;52.002;5.468;2023-02-28T00:48:06;103102.78;;;3.09;72.18
73341;BME280;61578;52.002;5.468;2023-02-28T00:48:37;103117.66;;;3.12;71.96
73341;BME280;61578;52.002;5.468;2023-02-28T00:49:08;103109.81;;;3.13;71.82
73341;BME280;61578;52.002;5.468;2023-02-28T00:49:39;103113.28;;;3.09;71.98
73341;BME280;61578;52.002;5.468;2023-02-28T00:50:10;103107.16;;;3.12;71.73
73341;BME280;61578;52.002;5.468;2023-02-28T00:50:41;103107.16;;;3.09;71.78
73341;BME280;61578;52.002;5.468;2023-02-28T00:51:12;103112.44;;;3.15;71.61
73341;BME280;61578;52.002;5.468;2023-02-28T00:51:43;103107.16;;;3.10;72.00
73341;BME280;61578;52.002;5.468;2023-02-28T00:52:14;103107.16;;;3.16;71.72
73341;BME280;61578;52.002;5.468;2023-02-28T00:52:48;103101.91;;;3.10;72.03
73341;BME280;61578;52.002;5.468;2023-02-28T00:53:19;103110.66;;;3.12;71.90
73341;BME280;61578;52.002;5.468;2023-02-28T00:53:49;103116.81;;;3.13;71.89
73341;BME280;61578;52.002;5.468;2023-02-28T00:54:22;103104.56;;;3.13;72.23
73341;BME280;61578;52.002;5.468;2023-02-28T00:54:53;103118.56;;;3.18;71.71
73341;BME280;61578;52.002;5.468;2023-02-28T00:55:25;103108.94;;;3.14;71.73
73341;BME280;61578;52.002;5.468;2023-02-28T00:55:55;103113.28;;;3.12;71.72
73341;BME280;61578;52.002;5.468;2023-02-28T00:56:26;103099.31;;;3.13;71.89
73341;BME280;61578;52.002;5.468;2023-02-28T00:56:57;103106.28;;;3.16;71.85
73341;BME280;61578;52.002;5.468;2023-02-28T00:57:32;103115.06;;;3.19;71.79
73341;BME280;61578;52.002;5.468;2023-02-28T00:58:03;103108.06;;;3.15;71.77
73341;BME280;61578;52.002;5.468;2023-02-28T00:58:34;103115.06;;;3.19;71.79
73341;BME280;61578;52.002;5.468;2023-02-28T00:59:05;103117.69;;;3.18;71.83
73341;BME280;61578;52.002;5.468;2023-02-28T00:59:36;103105.41;;;3.12;72.01
73341;BME280;61578;52.002;5.468;2023-02-28T01:00:08;103109.78;;;3.16;71.79
73341;BME280;61578;52.002;5.468;2023-02-28T01:00:42;103108.06;;;3.18;71.80
73341;BME280;61578;52.002;5.468;2023-02-28T01:01:13;103101.00;;;3.07;72.08
73341;BME280;61578;52.002;5.468;2023-02-28T01:01:46;103115.91;;;3.17;71.88
73341;BME280;61578;52.002;5.468;2023-02-28T01:02:17;103118.53;;;3.17;71.88
73341;BME280;61578;52.002;5.468;2023-02-28T01:02:48;103076.47;;;2.91;72.11
73341;BME280;61578;52.002;5.468;2023-02-28T01:03:20;103122.03;;;3.17;72.17
73341;BME280;61578;52.002;5.468;2023-02-28T01:03:53;103117.66;;;3.16;72.33
73341;BME280;61578;52.002;5.468;2023-02-28T01:04:24;103104.50;;;3.07;72.28
73341;BME280;61578;52.002;5.468;2023-02-28T01:04:55;103106.28;;;3.10;72.35
73341;BME280;61578;52.002;5.468;2023-02-28T01:05:27;103116.78;;;3.17;72.43
73341;BME280;61578;52.002;5.468;2023-02-28T01:05:59;103108.91;;;3.11;72.37
73341;BME280;61578;52.002;5.468;2023-02-28T01:06:29;103118.53;;;3.17;72.48
73341;BME280;61578;52.002;5.468;2023-02-28T01:07:01;103112.44;;;3.13;72.27
73341;BME280;61578;52.002;5.468;2023-02-28T01:07:31;103119.41;;;3.17;72.27
73341;BME280;61578;52.002;5.468;2023-02-28T01:08:02;103115.94;;;3.18;72.38
73341;BME280;61578;52.002;5.468;2023-02-28T01:08:33;103116.81;;;3.20;72.52
73341;BME280;61578;52.002;5.468;2023-02-28T01:09:06;103113.31;;;3.20;72.59
73341;BME280;61578;52.002;5.468;2023-02-28T01:09:38;103127.31;;;3.22;72.16
73341;BME280;61578;52.002;5.468;2023-02-28T01:10:09;103119.44;;;3.19;72.59
73341;BME280;61578;52.002;5.468;2023-02-28T01:10:41;103115.94;;;3.21;72.37
73341;BME280;61578;52.002;5.468;2023-02-28T01:11:15;103119.47;;;3.23;72.14
73341;BME280;61578;52.002;5.468;2023-02-28T01:11:47;103084.41;;;3.05;72.37
73341;BME280;61578;52.002;5.468;2023-02-28T01:12:18;103108.06;;;3.18;72.12
73341;BME280;61578;52.002;5.468;2023-02-28T01:12:48;103105.44;;;3.15;71.99
73341;BME280;61578;52.002;5.468;2023-02-28T01:13:20;103118.56;;;3.27;72.16
73341;BME280;61578;52.002;5.468;2023-02-28T01:13:53;103124.69;;;3.26;72.18
73341;BME280;61578;52.002;5.468;2023-02-28T01:14:24;103114.16;;;3.17;72.24
73341;BME280;61578;52.002;5.468;2023-02-28T01:14:55;103122.97;;;3.24;72.19
73341;BME280;61578;52.002;5.468;2023-02-28T01:15:25;103122.97;;;3.25;72.22
73341;BME280;61578;52.002;5.468;2023-02-28T01:15:56;103120.31;;;3.27;72.51
73341;BME280;61578;52.002;5.468;2023-02-28T01:16:27;103121.22;;;3.24;72.50
73341;BME280;61578;52.002;5.468;2023-02-28T01:16:59;103121.22;;;3.29;72.39
73341;BME280;61578;52.002;5.468;2023-02-28T01:17:30;103125.56;;;3.28;72.37
73341;BME280;61578;52.002;5.468;2023-02-28T01:18:00;103121.19;;;3.26;72.40
73341;BME280;61578;52.002;5.468;2023-02-28T01:18:31;103122.09;;;3.31;72.64
73341;BME280;61578;52.002;5.468;2023-02-28T01:19:02;103115.09;;;3.33;72.39
73341;BME280;61578;52.002;5.468;2023-02-28T01:19:33;103115.13;;;3.35;72.00
73341;BME280;61578;52.002;5.468;2023-02-28T01:20:07;103059.03;;;3.01;72.01
73341;BME280;61578;52.002;5.468;2023-02-28T01:20:40;103111.59;;;3.37;72.24
73341;BME280;61578;52.002;5.468;2023-02-28T01:21:14;103119.50;;;3.40;72.24
73341;BME280;61578;52.002;5.468;2023-02-28T01:21:46;103110.72;;;3.38;72.19
73341;BME280;61578;52.002;5.468;2023-02-28T01:22:17;103109.84;;;3.38;72.18
73341;BME280;61578;52.002;5.468;2023-02-28T01:22:48;103111.63;;;3.42;72.17
73341;BME280;61578;52.002;5.468;2023-02-28T01:23:20;103122.13;;;3.40;72.00
73341;BME280;61578;52.002;5.468;2023-02-28T01:23:56;103109.00;;;3.42;71.99
73341;BME280;61578;52.002;5.468;2023-02-28T01:24:28;103113.38;;;3.49;71.78
73341;BME280;61578;52.002;5.468;2023-02-28T01:24:59;103108.13;;;3.46;72.09
73341;BME280;61578;52.002;5.468;2023-02-28T01:25:29;103115.13;;;3.48;71.96
73341;BME280;61578;52.002;5.468;2023-02-28T01:26:14;103080.09;;;3.29;71.68
73341;BME280;61578;52.002;5.468;2023-02-28T01:26:49;103121.25;;;3.50;71.72
73341;BME280;61578;52.002;5.468;2023-02-28T01:27:20;103119.53;;;3.55;71.68
73341;BME280;61578;52.002;5.468;2023-02-28T01:27:51;103114.28;;;3.55;71.59
73341;BME280;61578;52.002;5.468;2023-02-28T01:28:22;103106.38;;;3.48;71.75
73341;BME280;61578;52.002;5.468;2023-02-28T01:28:54;103122.13;;;3.57;72.04
73341;BME280;61578;52.002;5.468;2023-02-28T01:29:25;103120.41;;;3.60;71.84
73341;BME280;61578;52.002;5.468;2023-02-28T01:29:55;103121.28;;;3.61;71.42
73341;BME280;61578;52.002;5.468;2023-02-28T01:30:26;103118.66;;;3.61;71.82
73341;BME280;61578;52.002;5.468;2023-02-28T01:30:57;103106.38;;;3.60;71.54
73341;BME280;61578;52.002;5.468;2023-02-28T01:31:28;103116.91;;;3.63;71.47
73341;BME280;61578;52.002;5.468;2023-02-28T01:31:59;103110.78;;;3.62;71.32
73341;BME280;61578;52.002;5.468;2023-02-28T01:32:30;103107.28;;;3.63;71.60
73341;BME280;61578;52.002;5.468;2023-02-28T01:33:01;103120.41;;;3.63;71.63
73341;BME280;61578;52.002;5.468;2023-02-28T01:33:32;103112.53;;;3.65;71.51
73341;BME280;61578;52.002;5.468;2023-02-28T01:34:03;103099.41;;;3.56;71.60
73341;BME280;61578;52.002;5.468;2023-02-28T01:34:34;103112.53;;;3.63;71.35
73341;BME280;61578;52.002;5.468;2023-02-28T01:35:05;103108.16;;;3.64;71.45
73341;BME280;61578;52.002;5.468;2023-02-28T01:35:37;103109.91;;;3.62;71.71
73341;BME280;61578;52.002;5.468;2023-02-28T01:36:15;103107.25;;;3.68;71.59
73341;BME280;61578;52.002;5.468;2023-02-28T01:36:48;103097.63;;;3.62;71.55
73341;BME280;61578;52.002;5.468;2023-02-28T01:37:19;103107.25;;;3.68;71.14
73341;BME280;61578;52.002;5.468;2023-02-28T01:37:50;103085.38;;;3.63;71.71
73341;BME280;61578;52.002;5.468;2023-02-28T01:38:21;103041.56;;;3.36;71.38
73341;BME280;61578;52.002;5.468;2023-02-28T01:38:52;103096.75;;;3.66;71.46
73341;BME280;61578;52.002;5.468;2023-02-28T01:39:22;103102.91;;;3.64;71.45
73341;BME280;61578;52.002;5.468;2023-02-28T01:39:53;103095.88;;;3.69;71.24
73341;BME280;61578;52.002;5.468;2023-02-28T01:40:24;103106.38;;;3.69;71.36
73341;BME280;61578;52.002;5.468;2023-02-28T01:40:55;103109.88;;;3.68;71.69
73341;BME280;61578;52.002;5.468;2023-02-28T01:41:33;103005.66;;;3.08;71.49
73341;BME280;61578;52.002;5.468;2023-02-28T01:42:05;103095.00;;;3.58;71.55
73341;BME280;61578;52.002;5.468;2023-02-28T01:42:38;103054.72;;;3.39;71.74
73341;BME280;61578;52.002;5.468;2023-02-28T01:43:21;103105.53;;;3.64;71.53
73341;BME280;61578;52.002;5.468;2023-02-28T01:45:35;103097.63;;;3.67;71.76
73341;BME280;61578;52.002;5.468;2023-02-28T01:46:06;103080.97;;;3.57;71.76
73341;BME280;61578;52.002;5.468;2023-02-28T01:46:37;103102.00;;;3.66;71.60
73341;BME280;61578;52.002;5.468;2023-02-28T01:47:07;103093.28;;;3.64;71.94
73341;BME280;61578;52.002;5.468;2023-02-28T01:47:41;103089.75;;;3.61;71.72
73341;BME280;61578;52.002;5.468;2023-02-28T01:48:13;103114.28;;;3.70;71.66
73341;BME280;61578;52.002;5.468;2023-02-28T01:48:57;103102.88;;;3.70;71.71
73341;BME280;61578;52.002;5.468;2023-02-28T01:49:32;103098.50;;;3.69;71.56
73341;BME280;61578;52.002;5.468;2023-02-28T01:50:08;103105.53;;;3.73;71.87
73341;BME280;61578;52.002;5.468;2023-02-28T01:50:45;103099.38;;;3.69;71.61
73341;BME280;61578;52.002;5.468;2023-02-28T01:51:29;103109.03;;;3.75;71.59
73341;BME280;61578;52.002;5.468;2023-02-28T01:52:05;103104.66;;;3.74;71.67
73341;BME280;61578;52.002;5.468;2023-02-28T01:52:37;103101.16;;;3.74;71.65
73341;BME280;61578;52.002;5.468;2023-02-28T01:53:14;103101.13;;;3.78;71.46
73341;BME280;61578;52.002;5.468;2023-02-28T01:53:57;103079.25;;;3.65;71.54
73341;BME280;61578;52.002;5.468;2023-02-28T01:54:34;103109.91;;;3.80;71.57
73341;BME280;61578;52.002;5.468;2023-02-28T01:55:07;103101.13;;;3.78;71.43
73341;BME280;61578;52.002;5.468;2023-02-28T01:55:47;103090.63;;;3.78;71.43
73341;BME280;61578;52.002;5.468;2023-02-28T01:56:30;103102.03;;;3.83;71.29
73341;BME280;61578;52.002;5.468;2023-02-28T01:57:10;103104.66;;;3.85;71.26
73341;BME280;61578;52.002;5.468;2023-02-28T01:57:52;103102.88;;;3.87;71.34
73341;BME280;61578;52.002;5.468;2023-02-28T01:58:26;103055.59;;;3.61;70.96
73341;BME280;61578;52.002;5.468;2023-02-28T01:58:57;103103.75;;;3.89;70.97
73341;BME280;61578;52.002;5.468;2023-02-28T01:59:54;103066.97;;;3.67;71.36
73341;BME280;61578;52.002;5.468;2023-02-28T02:00:31;103099.38;;;3.89;71.09
73341;BME280;61578;52.002;5.468;2023-02-28T02:01:03;103102.91;;;3.90;70.95
73341;BME280;61578;52.002;5.468;2023-02-28T02:01:34;103101.16;;;3.84;71.02
73341;BME280;61578;52.002;5.468;2023-02-28T02:02:05;103103.78;;;3.90;71.24
73341;BME280;61578;52.002;5.468;2023-02-28T02:02:37;103086.28;;;3.85;71.33
73341;BME280;61578;52.002;5.468;2023-02-28T02:03:12;103100.28;;;3.91;70.96
73341;BME280;61578;52.002;5.468;2023-02-28T02:03:55;103091.50;;;3.91;71.13
73341;BME280;61578;52.002;5.468;2023-02-28T02:04:40;103093.28;;;3.84;71.06
73341;BME280;61578;52.002;5.468;2023-02-28T02:05:26;103095.00;;;3.90;71.11
73341;BME280;61578;52.002;5.468;2023-02-28T02:06:02;103096.75;;;3.89;71.29
73341;BME280;61578;52.002;5.468;2023-02-28T02:06:43;103085.38;;;3.90;71.20
73341;BME280;61578;52.002;5.468;2023-02-28T02:07:16;103095.00;;;3.91;71.06
73341;BME280;61578;52.002;5.468;2023-02-28T02:07:51;103095.88;;;3.90;71.10
73341;BME280;61578;52.002;5.468;2023-02-28T02:08:28;103093.25;;;3.87;71.37
73341;BME280;61578;52.002;5.468;2023-02-28T02:09:00;103081.00;;;3.83;71.58
73341;BME280;61578;52.002;5.468;2023-02-28T02:09:31;103087.13;;;3.88;71.40
73341;BME280;61578;52.002;5.468;2023-02-28T02:10:15;103088.00;;;3.89;70.86
73341;BME280;61578;52.002;5.468;2023-02-28T02:10:54;103069.63;;;3.83;70.94
73341;BME280;61578;52.002;5.468;2023-02-28T02:11:27;103031.97;;;3.62;71.38
73341;BME280;61578;52.002;5.468;2023-02-28T02:12:16;103082.75;;;3.90;71.41
73341;BME280;61578;52.002;5.468;2023-02-28T02:15:00;103081.88;;;3.93;71.23
73341;BME280;61578;52.002;5.468;2023-02-28T02:17:39;103079.25;;;3.88;71.26
73341;BME280;61578;52.002;5.468;2023-02-28T02:23:07;103068.75;;;3.96;71.31
73341;BME280;61578;52.002;5.468;2023-02-28T02:25:13;103084.47;;;3.97;70.94
73341;BME280;61578;52.002;5.468;2023-02-28T02:28:46;103083.63;;;3.92;71.15
73341;BME280;61578;52.002;5.468;2023-02-28T02:35:54;103081.88;;;3.93;71.11
73341;BME280;61578;52.002;5.468;2023-02-28T02:36:40;103082.75;;;3.95;71.11
73341;BME280;61578;52.002;5.468;2023-02-28T02:38:56;103095.88;;;3.98;71.43
73341;BME280;61578;52.002;5.468;2023-02-28T02:40:00;103077.50;;;3.92;71.19
73341;BME280;61578;52.002;5.468;2023-02-28T02:40:40;103091.50;;;3.98;70.88
73341;BME280;61578;52.002;5.468;2023-02-28T02:41:41;103091.50;;;4.00;71.09
73341;BME280;61578;52.002;5.468;2023-02-28T02:42:39;103082.75;;;3.99;70.78
73341;BME280;61578;52.002;5.468;2023-02-28T02:44:36;103084.50;;;4.00;70.48
73341;BME280;61578;52.002;5.468;2023-02-28T02:45:32;103082.75;;;3.95;70.04
73341;BME280;61578;52.002;5.468;2023-02-28T02:46:17;103086.25;;;4.03;69.88
73341;BME280;61578;52.002;5.468;2023-02-28T02:46:59;103094.13;;;4.04;70.12
73341;BME280;61578;52.002;5.468;2023-02-28T02:47:39;103044.22;;;3.80;70.23
73341;BME280;61578;52.002;5.468;2023-02-28T02:48:16;103090.63;;;4.05;70.15
73341;BME280;61578;52.002;5.468;2023-02-28T02:48:54;103088.84;;;4.07;69.92
73341;BME280;61578;52.002;5.468;2023-02-28T02:49:32;103090.59;;;4.08;70.06
73341;BME280;61578;52.002;5.468;2023-02-28T02:50:11;103088.84;;;4.09;69.60
73341;BME280;61578;52.002;5.468;2023-02-28T02:50:58;103086.22;;;4.09;69.73
73341;BME280;61578;52.002;5.468;2023-02-28T02:51:34;103091.47;;;4.09;69.94
73341;BME280;61578;52.002;5.468;2023-02-28T02:52:11;103074.84;;;3.98;69.80
73341;BME280;61578;52.002;5.468;2023-02-28T02:52:51;103084.50;;;4.05;69.78
73341;BME280;61578;52.002;5.468;2023-02-28T02:53:42;103084.47;;;4.11;69.98
73341;BME280;61578;52.002;5.468;2023-02-28T02:54:32;103092.34;;;4.08;69.72
73341;BME280;61578;52.002;5.468;2023-02-28T02:55:08;103094.13;;;4.12;69.53
73341;BME280;61578;52.002;5.468;2023-02-28T02:55:48;103078.38;;;4.04;69.90
73341;BME280;61578;52.002;5.468;2023-02-28T02:56:28;103089.75;;;4.06;69.60
73341;BME280;61578;52.002;5.468;2023-02-28T02:57:08;103079.25;;;4.06;69.61
73341;BME280;61578;52.002;5.468;2023-02-28T02:57:58;103089.72;;;4.10;69.84
73341;BME280;61578;52.002;5.468;2023-02-28T02:58:37;103099.38;;;4.11;69.68
73341;BME280;61578;52.002;5.468;2023-02-28T02:59:16;103100.25;;;4.08;69.64
73341;BME280;61578;52.002;5.468;2023-02-28T02:59:54;103098.53;;;4.05;69.60
73341;BME280;61578;52.002;5.468;2023-02-28T03:00:34;103103.75;;;4.10;69.44
73341;BME280;61578;52.002;5.468;2023-02-28T03:01:21;103045.09;;;3.82;69.64
73341;BME280;61578;52.002;5.468;2023-02-28T03:02:01;103076.59;;;4.00;70.08
73341;BME280;61578;52.002;5.468;2023-02-28T03:02:38;103103.75;;;4.08;69.58
73341;BME280;61578;52.002;5.468;2023-02-28T03:03:12;103098.50;;;4.13;69.26
73341;BME280;61578;52.002;5.468;2023-02-28T03:03:45;103093.25;;;4.12;69.69
73341;BME280;61578;52.002;5.468;2023-02-28T03:04:20;103095.00;;;4.13;69.56
73341;BME280;61578;52.002;5.468;2023-02-28T03:04:59;103081.84;;;4.08;70.05
73341;BME280;61578;52.002;5.468;2023-02-28T03:05:50;103082.72;;;4.08;69.75
73341;BME280;61578;52.002;5.468;2023-02-28T03:06:21;103086.22;;;4.07;69.57
73341;BME280;61578;52.002;5.468;2023-02-28T03:06:52;103086.25;;;4.15;69.49
73341;BME280;61578;52.002;5.468;2023-02-28T03:07:26;103093.25;;;4.13;69.71
73341;BME280;61578;52.002;5.468;2023-02-28T03:07:58;103084.47;;;4.10;69.84
73341;BME280;61578;52.002;5.468;2023-02-28T03:08:34;103083.59;;;4.11;69.71
73341;BME280;61578;52.002;5.468;2023-02-28T03:09:06;103094.13;;;4.17;69.93
73341;BME280;61578;52.002;5.468;2023-02-28T03:09:37;103095.00;;;4.13;69.91
73341;BME280;61578;52.002;5.468;2023-02-28T03:10:27;103096.75;;;4.12;69.76
73341;BME280;61578;52.002;5.468;2023-02-28T03:11:07;103103.75;;;4.10;70.13
73341;BME280;61578;52.002;5.468;2023-02-28T03:11:45;103099.38;;;4.09;70.16
73341;BME280;61578;52.002;5.468;2023-02-28T03:12:15;103047.75;;;3.76;70.22
73341;BME280;61578;52.002;5.468;2023-02-28T03:13:02;103095.91;;;4.07;70.40
73341;BME280;61578;52.002;5.468;2023-02-28T03:14:54;103105.53;;;4.05;70.46
73341;BME280;61578;52.002;5.468;2023-02-28T03:17:58;103102.91;;;4.02;70.76
73341;BME280;61578;52.002;5.468;2023-02-28T03:18:50;103102.91;;;4.03;70.86
73341;BME280;61578;52.002;5.468;2023-02-28T03:20:27;103103.78;;;4.04;70.57
73341;BME280;61578;52.002;5.468;2023-02-28T03:22:09;103101.13;;;4.02;70.97
73341;BME280;61578;52.002;5.468;2023-02-28T03:23:19;103104.66;;;4.01;70.88
73341;BME280;61578;52.002;5.468;2023-02-28T03:24:08;103102.03;;;4.03;70.81
73341;BME280;61578;52.002;5.468;2023-02-28T03:25:29;103104.66;;;4.04;70.78
73341;BME280;61578;52.002;5.468;2023-02-28T03:26:10;103104.66;;;4.03;71.31
73341;BME280;61578;52.002;5.468;2023-02-28T03:26:57;103104.66;;;4.04;71.08
73341;BME280;61578;52.002;5.468;2023-02-28T03:29:23;103091.53;;;3.97;70.90
73341;BME280;61578;52.002;5.468;2023-02-28T03:31:00;103105.53;;;4.06;71.14
73341;BME280;61578;52.002;5.468;2023-02-28T03:31:57;103098.50;;;4.04;71.16
73341;BME280;61578;52.002;5.468;2023-02-28T03:32:45;103098.50;;;4.02;71.08
73341;BME280;61578;52.002;5.468;2023-02-28T03:33:50;103104.66;;;4.03;70.87
73341;BME280;61578;52.002;5.468;2023-02-28T03:34:29;103104.66;;;4.04;71.03
73341;BME280;61578;52.002;5.468;2023-02-28T03:35:52;103106.41;;;4.05;70.99
73341;BME280;61578;52.002;5.468;2023-02-28T03:36:30;103098.50;;;4.02;70.69
73341;BME280;61578;52.002;5.468;2023-02-28T03:37:19;103100.28;;;4.03;70.62
73341;BME280;61578;52.002;5.468;2023-02-28T03:39:04;103088.88;;;4.01;70.92
73341;BME280;61578;52.002;5.468;2023-02-28T03:39:51;103102.00;;;4.07;70.83
73341;BME280;61578;52.002;5.468;2023-02-28T03:40:34;103101.13;;;4.08;70.44
73341;BME280;61578;52.002;5.468;2023-02-28T03:41:15;103102.88;;;4.08;70.62